Time;durP1;ratioP1;P1;durP2;ratioP2;P2;SDS_P1;SDS_P2;PMS_P1;PMS_P2;Temp;Humidity;BMP_temperature;BMP_pressure;BME280_temperature;BME280_humidity;BME280_pressure;Samples;Min_cycle;Max_cycle;Signal;HPM_P1;HPM_P2
2022/04/10 00:00:17;;;;;;;6.80;3.28;;;3.60;99.90;;;3.52;74.16;100630.69;4819612;29;20214;-71
2022/04/10 00:02:46;;;;;;;8.73;3.13;;;3.70;99.90;;;3.36;74.57;100635.97;4805447;29;20200;-71
2022/04/10 00:05:15;;;;;;;4.25;2.75;;;3.60;99.90;;;3.39;74.63;100630.28;4805145;29;20178;-71
2022/04/10 00:07:44;;;;;;;6.45;2.60;;;3.60;99.90;;;3.30;74.75;100637.44;4804881;29;20272;-70
2022/04/10 00:10:13;;;;;;;6.60;2.75;;;3.50;99.90;;;3.22;75.01;100633.91;4804845;29;20285;-72
2022/04/10 00:12:47;;;;;;;5.75;2.85;;;3.40;99.90;;;3.24;75.27;100637.28;4804592;29;20181;-72
2022/04/10 00:15:16;;;;;;;8.93;3.15;;;3.40;99.90;;;3.15;75.29;100638.25;4805530;29;20744;-71
2022/04/10 00:17:45;;;;;;;3.78;1.98;;;3.40;99.90;;;3.22;75.19;100628.56;4806132;29;20619;-70
2022/04/10 00:20:14;;;;;;;4.55;3.97;;;3.40;99.90;;;3.13;75.47;100635.72;4813909;29;20263;-72
2022/04/10 00:22:45;;;;;;;5.30;2.65;;;3.40;99.90;;;3.14;75.64;100637.41;4813347;29;20236;-71
2022/04/10 00:25:17;;;;;;;6.57;3.10;;;3.40;99.90;;;3.06;75.53;100635.50;4808306;29;20211;-70
2022/04/10 00:27:49;;;;;;;5.32;2.30;;;3.30;99.90;;;3.12;75.51;100643.91;4804163;29;20262;-71
2022/04/10 00:30:19;;;;;;;7.05;3.65;;;3.30;99.90;;;3.14;75.60;100649.94;4804419;29;20260;-70
2022/04/10 00:32:48;;;;;;;4.60;3.63;;;3.30;99.90;;;3.14;75.44;100647.25;4804371;29;20203;-69
2022/04/10 00:35:17;;;;;;;12.40;3.40;;;3.30;99.90;;;3.17;75.52;100641.59;4804399;29;20705;-72
2022/04/10 00:37:46;;;;;;;8.30;3.22;;;3.40;99.90;;;3.33;75.85;100650.53;4799895;29;20213;-72
2022/04/10 00:40:15;;;;;;;8.10;3.65;;;3.40;99.90;;;3.42;75.26;100644.19;4786465;29;20690;-71
2022/04/10 00:42:51;;;;;;;6.20;3.58;;;3.50;99.90;;;3.49;74.95;100657.75;4786336;29;20285;-70
2022/04/10 00:45:21;;;;;;;13.20;7.43;;;3.50;99.90;;;3.55;74.77;100648.22;4793420;29;20270;-71
2022/04/10 00:47:50;;;;;;;6.15;4.00;;;3.60;99.90;;;3.52;74.31;100646.75;4804042;29;20329;-72
2022/04/10 00:50:21;;;;;;;5.30;3.20;;;3.70;99.90;;;3.47;74.82;100647.22;4804153;29;20221;-71
2022/04/10 00:52:51;;;;;;;9.18;3.92;;;3.60;99.90;;;3.34;75.25;100646.00;4803881;29;20763;-71
2022/04/10 00:55:21;;;;;;;8.15;4.10;;;3.50;99.90;;;3.21;75.53;100649.13;4804053;29;20201;-70
2022/04/10 00:57:52;;;;;;;6.20;3.63;;;3.40;99.90;;;3.15;75.39;100648.94;4804050;29;20288;-71
2022/04/10 01:00:22;;;;;;;13.65;5.20;;;3.30;99.90;;;3.20;75.73;100651.94;4817809;29;20222;-71
2022/04/10 01:02:51;;;;;;;7.82;3.97;;;3.40;99.90;;;3.21;75.44;100656.31;4804038;29;20212;-71
2022/04/10 01:05:20;;;;;;;10.25;3.92;;;3.30;99.90;;;3.29;75.20;100640.31;4818389;29;20604;-72
2022/04/10 01:07:50;;;;;;;6.70;3.90;;;3.40;99.90;;;3.20;75.53;100644.75;4818019;29;20213;-70
2022/04/10 01:10:19;;;;;;;7.22;3.90;;;3.40;99.90;;;3.14;75.65;100636.56;4805884;29;20226;-70
2022/04/10 01:12:55;;;;;;;9.75;4.60;;;3.30;99.90;;;3.13;75.43;100645.56;4821460;29;20201;-70
2022/04/10 01:15:26;;;;;;;10.18;3.83;;;3.30;99.90;;;3.14;75.52;100644.59;4809425;29;20201;-72
2022/04/10 01:17:57;;;;;;;5.43;3.72;;;3.30;99.90;;;3.04;75.67;100634.84;4808879;29;20527;-71
2022/04/10 01:20:27;;;;;;;6.50;4.38;;;3.20;99.90;;;3.06;75.85;100632.84;4808460;29;20229;-72
2022/04/10 01:23:05;;;;;;;8.43;4.45;;;3.30;99.90;;;3.05;75.86;100639.19;4824085;29;20201;-70
2022/04/10 01:25:34;;;;;;;7.78;4.45;;;3.20;99.90;;;3.03;76.12;100635.84;4823119;29;20229;-71
2022/04/10 01:28:13;;;;;;;16.27;4.00;;;3.20;99.90;;;3.16;75.72;100629.19;4821853;29;20586;-71
2022/04/10 01:30:44;;;;;;;10.57;5.00;;;3.30;99.90;;;3.23;75.37;100632.91;4821731;29;20221;-70
2022/04/10 01:33:14;;;;;;;7.80;3.42;;;3.30;99.90;;;3.15;75.40;100630.22;4807185;29;20223;-69
2022/04/10 01:35:44;;;;;;;10.30;4.30;;;3.30;99.90;;;3.07;75.63;100641.69;4823215;29;20201;-70
2022/04/10 01:38:19;;;;;;;4.65;3.85;;;3.30;99.90;;;3.03;75.73;100641.19;4809290;29;20197;-70
2022/04/10 01:40:51;;;;;;;6.70;4.35;;;3.20;99.90;;;2.93;76.15;100648.50;4822522;29;20308;-72
2022/04/10 01:43:21;;;;;;;8.25;5.55;;;3.10;99.90;;;2.86;76.44;100654.59;4808739;29;20213;-71
2022/04/10 01:45:50;;;;;;;6.78;4.50;;;3.10;99.90;;;2.87;76.13;100651.78;4807873;29;20213;-71
2022/04/10 01:48:20;;;;;;;4.05;3.65;;;3.10;99.90;;;2.79;76.43;100653.59;4808390;29;20459;-73
2022/04/10 01:50:53;;;;;;;13.43;5.10;;;3.00;99.90;;;2.79;76.40;100654.44;4839483;29;20225;-73
2022/04/10 01:53:29;;;;;;;5.22;3.30;;;3.00;99.90;;;2.76;76.55;100660.06;4809913;29;20204;-72
2022/04/10 01:56:02;;;;;;;5.60;4.53;;;3.00;99.90;;;2.74;76.50;100656.72;4810312;29;20198;-71
2022/04/10 01:58:33;;;;;;;7.00;4.05;;;3.00;99.90;;;2.70;76.70;100655.38;4811147;29;20372;-71
2022/04/10 02:01:06;;;;;;;4.18;3.63;;;2.90;99.90;;;2.71;76.57;100651.69;4808118;29;20221;-72
2022/04/10 02:03:39;;;;;;;5.07;3.33;;;2.90;99.90;;;2.66;76.91;100655.84;4807776;29;20205;-72
2022/04/10 02:06:12;;;;;;;7.35;3.90;;;2.90;99.90;;;2.69;76.63;100653.69;4837636;29;20229;-72
2022/04/10 02:08:55;;;;;;;9.48;4.00;;;2.80;99.90;;;2.62;76.82;100652.63;4807499;29;20224;-72
2022/04/10 02:11:31;;;;;;;9.23;3.20;;;2.80;99.90;;;2.65;76.81;100651.50;4824028;29;20542;-71
2022/04/10 02:14:03;;;;;;;6.70;3.90;;;2.80;99.90;;;2.70;76.65;100655.38;4839015;29;20752;-71
2022/04/10 02:16:36;;;;;;;6.80;4.07;;;2.80;99.90;;;2.59;77.05;100659.13;4819268;29;20244;-71
2022/04/10 02:19:05;;;;;;;9.27;4.10;;;2.80;99.90;;;2.77;76.63;100663.56;4792871;29;20182;-71
2022/04/10 02:22:03;;;;;;;10.07;3.90;;;2.80;99.90;;;2.82;76.33;100658.59;4803384;29;20202;-71
2022/04/10 02:24:35;;;;;;;5.15;3.38;;;2.90;99.90;;;2.88;75.86;100669.50;4839849;29;20205;-71
2022/04/10 02:27:32;;;;;;;6.72;3.85;;;3.00;99.90;;;2.81;76.14;100665.78;4822855;29;20248;-73
2022/04/10 02:30:01;;;;;;;8.05;3.65;;;3.00;99.90;;;2.75;76.36;100662.91;4807762;29;20333;-72
2022/04/10 02:32:31;;;;;;;8.63;4.40;;;2.90;99.90;;;2.84;76.11;100672.66;4808098;29;20221;-71
2022/04/10 02:35:01;;;;;;;14.27;4.30;;;2.90;99.90;;;2.91;76.01;100668.34;4807147;29;20232;-71
2022/04/10 02:37:31;;;;;;;6.35;4.50;;;3.00;99.90;;;3.03;75.56;100667.94;4805410;29;20208;-69
2022/04/10 02:40:01;;;;;;;6.68;4.25;;;3.10;99.90;;;3.01;75.40;100669.91;4805440;29;20232;-71
2022/04/10 02:42:33;;;;;;;8.15;4.25;;;3.10;99.90;;;2.88;75.75;100666.84;4807775;29;20193;-71
2022/04/10 02:45:04;;;;;;;6.35;4.20;;;3.00;99.90;;;2.87;75.76;100667.81;4839028;29;20209;-71
2022/04/10 02:47:33;;;;;;;8.73;4.40;;;3.00;99.90;;;2.81;75.91;100671.13;4810421;29;20201;-71
2022/04/10 02:50:03;;;;;;;11.10;5.55;;;2.90;99.90;;;2.84;76.13;100667.31;4822021;29;20600;-71
2022/04/10 02:52:32;;;;;;;12.00;5.47;;;2.90;99.90;;;2.93;75.70;100671.69;4821022;29;20591;-71
2022/04/10 02:55:02;;;;;;;7.82;5.22;;;3.00;99.90;;;2.87;76.11;100680.34;4820071;29;20189;-71
2022/04/10 02:57:32;;;;;;;7.53;6.05;;;3.00;99.90;;;2.86;75.55;100679.50;4805713;29;20181;-69
2022/04/10 03:00:01;;;;;;;8.82;4.25;;;3.00;99.90;;;2.97;75.68;100681.91;4819775;29;20218;-72
2022/04/10 03:02:31;;;;;;;8.10;4.70;;;3.00;99.90;;;3.12;75.44;100679.50;4834505;29;20197;-69
2022/04/10 03:05:01;;;;;;;13.50;6.05;;;3.20;99.90;;;3.15;74.84;100687.19;4805344;29;20181;-71
2022/04/10 03:07:30;;;;;;;7.60;4.63;;;3.20;99.90;;;3.13;75.22;100683.00;4819198;29;20238;-70
2022/04/10 03:10:01;;;;;;;15.38;4.90;;;3.20;99.90;;;3.10;75.30;100678.00;4834102;29;20755;-71
2022/04/10 03:12:31;;;;;;;10.93;5.00;;;3.20;99.90;;;3.15;74.81;100681.84;4819725;29;20218;-71
2022/04/10 03:15:00;;;;;;;7.45;4.35;;;3.20;99.90;;;3.14;74.75;100677.50;4818976;29;20289;-71
2022/04/10 03:17:29;;;;;;;9.38;5.22;;;3.20;99.90;;;3.17;74.67;100689.72;4805344;29;20181;-71
2022/04/10 03:19:59;;;;;;;5.63;4.35;;;3.20;99.90;;;3.23;74.78;100689.06;4819175;29;20237;-72
2022/04/10 03:22:28;;;;;;;11.50;4.82;;;3.30;99.90;;;3.24;74.56;100688.09;4805882;29;20185;-70
2022/04/10 03:24:57;;;;;;;11.15;5.75;;;3.30;99.90;;;3.10;74.68;100696.72;4805578;29;20198;-70
2022/04/10 03:27:28;;;;;;;11.00;4.63;;;3.30;99.90;;;3.02;75.18;100698.31;4805282;29;20243;-70
2022/04/10 03:29:57;;;;;;;6.13;3.63;;;3.20;99.90;;;3.03;75.01;100689.31;4834258;29;20283;-70
2022/04/10 03:32:26;;;;;;;7.18;5.05;;;3.10;99.90;;;2.99;74.82;100693.31;4819286;29;20444;-71
2022/04/10 03:34:56;;;;;;;9.90;4.85;;;3.10;99.90;;;2.92;75.12;100692.25;4834638;29;20208;-71
2022/04/10 03:37:25;;;;;;;8.95;5.32;;;3.10;99.90;;;2.87;75.34;100691.03;4804002;29;20289;-71
2022/04/10 03:39:54;;;;;;;10.50;4.60;;;3.00;99.90;;;2.84;75.51;100705.56;4805032;29;20721;-70
2022/04/10 03:42:23;;;;;;;8.43;4.35;;;3.00;99.90;;;2.86;75.40;100706.22;4816250;29;20205;-70
2022/04/10 03:44:53;;;;;;;9.27;4.88;;;3.00;99.90;;;2.99;75.14;100712.03;4815967;29;20205;-71
2022/04/10 03:47:22;;;;;;;5.60;3.28;;;3.00;99.90;;;2.97;74.87;100719.34;4815943;29;20220;-71
2022/04/10 03:49:51;;;;;;;9.13;4.72;;;3.10;99.90;;;3.00;74.76;100721.69;4794449;29;20230;-71
2022/04/10 03:52:20;;;;;;;9.75;4.43;;;3.10;99.90;;;3.01;74.98;100723.38;4804328;29;20302;-70
2022/04/10 03:54:49;;;;;;;8.40;5.13;;;3.10;99.90;;;3.01;74.97;100731.41;4804121;29;20292;-71
2022/04/10 03:57:18;;;;;;;6.93;4.72;;;3.10;99.90;;;3.00;74.59;100729.72;4816034;29;20225;-71
2022/04/10 03:59:47;;;;;;;15.50;4.80;;;3.10;99.90;;;2.98;74.75;100731.72;4815857;29;20222;-72
2022/04/10 04:02:18;;;;;;;7.28;4.97;;;3.10;99.90;;;3.05;74.82;100724.72;4786958;30;20205;-71
2022/04/10 04:04:51;;;;;;;6.15;3.95;;;3.20;99.90;;;3.08;74.66;100725.41;4825941;29;20213;-71
2022/04/10 04:07:22;;;;;;;12.07;4.38;;;3.20;99.90;;;3.11;74.56;100725.94;4819239;29;20197;-71
2022/04/10 04:09:51;;;;;;;8.40;5.25;;;3.20;99.90;;;3.22;74.73;100736.38;4819252;29;20240;-71
2022/04/10 04:12:22;;;;;;;11.38;5.18;;;3.30;99.90;;;3.15;74.15;100734.50;4815953;29;20698;-71
2022/04/10 04:14:51;;;;;;;8.15;4.78;;;3.20;99.90;;;3.19;73.76;100739.38;4791420;29;20217;-70
2022/04/10 04:17:22;;;;;;;11.05;4.60;;;3.30;99.90;;;3.00;74.32;100750.28;4803991;29;20650;-71
2022/04/10 04:19:51;;;;;;;9.98;4.45;;;3.20;99.90;;;3.06;74.35;100750.47;4803124;29;20306;-71
2022/04/10 04:22:21;;;;;;;8.05;4.78;;;3.20;99.90;;;3.05;74.05;100747.94;4819863;29;20205;-71
2022/04/10 04:24:50;;;;;;;15.75;4.60;;;3.20;99.90;;;3.08;74.34;100749.47;4804824;29;20178;-71
2022/04/10 04:27:19;;;;;;;10.38;3.72;;;3.20;99.90;;;3.24;74.01;100755.78;4815420;29;20214;-70
2022/04/10 04:29:48;;;;;;;8.55;4.43;;;3.30;99.90;;;3.21;73.95;100760.59;4815321;29;20786;-70
2022/04/10 04:32:18;;;;;;;10.48;5.95;;;3.30;99.90;;;3.22;73.44;100762.28;4786804;29;20202;-71
2022/04/10 04:34:49;;;;;;;12.95;4.80;;;3.30;99.90;;;3.24;74.05;100760.28;4815689;29;20194;-70
2022/04/10 04:37:18;;;;;;;17.92;6.22;;;3.30;99.90;;;3.24;73.40;100765.63;4815857;29;20251;-70
2022/04/10 04:39:47;;;;;;;10.30;3.90;;;3.40;99.90;;;3.15;73.47;100758.56;4815390;29;20240;-71
2022/04/10 04:42:19;;;;;;;11.75;4.30;;;3.30;99.90;;;3.28;73.46;100762.50;4815782;29;20639;-71
2022/04/10 04:44:48;;;;;;;7.13;4.88;;;3.30;99.90;;;3.20;73.44;100765.09;4787235;29;20187;-69
2022/04/10 04:47:17;;;;;;;7.50;4.35;;;3.30;99.90;;;3.17;73.52;100765.41;4818977;29;20198;-70
2022/04/10 04:49:48;;;;;;;15.95;4.90;;;3.30;99.90;;;3.18;73.57;100767.09;4818593;29;20221;-70
2022/04/10 04:52:18;;;;;;;10.48;4.80;;;3.30;99.90;;;3.15;73.67;100761.25;4788816;29;20571;-71
2022/04/10 04:54:47;;;;;;;8.43;5.47;;;3.30;99.90;;;3.04;73.92;100770.34;4819189;29;20197;-70
2022/04/10 04:57:17;;;;;;;11.82;5.07;;;3.20;99.90;;;2.97;74.14;100772.81;4823464;24;20711;-70
2022/04/10 04:59:45;;;;;;;13.30;5.20;;;3.20;99.90;;;2.89;74.72;100772.75;4807819;29;20205;-70
2022/04/10 05:02:14;;;;;;;13.68;4.80;;;3.10;99.90;;;2.89;74.85;100774.59;4807034;29;20221;-70
2022/04/10 05:04:44;;;;;;;9.45;4.68;;;3.00;99.90;;;2.94;74.40;100781.16;4807327;29;20233;-68
2022/04/10 05:07:14;;;;;;;14.05;4.05;;;3.10;99.90;;;2.93;74.25;100779.47;4807196;29;20734;-68
2022/04/10 05:09:43;;;;;;;14.00;3.83;;;3.00;99.90;;;3.15;73.77;100777.28;4807461;29;20243;-69
2022/04/10 05:12:13;;;;;;;8.75;4.50;;;3.20;99.90;;;3.26;73.85;100790.38;4856694;24;20233;-67
2022/04/10 05:14:45;;;;;;;10.75;4.93;;;3.20;99.90;;;3.47;73.05;100794.38;4810926;29;20643;-66
2022/04/10 05:17:16;;;;;;;7.93;4.72;;;3.40;99.90;;;3.38;72.71;100797.16;4806726;29;20233;-67
2022/04/10 05:19:48;;;;;;;9.68;3.70;;;3.40;99.90;;;3.41;73.00;100803.00;4806810;29;20213;-67
2022/04/10 05:22:19;;;;;;;10.02;4.13;;;3.40;99.90;;;3.46;72.69;100810.56;4807007;29;20229;-66
2022/04/10 05:24:58;;;;;;;7.75;3.00;;;3.50;99.90;;;3.52;72.92;100817.97;4806730;29;20240;-67
2022/04/10 05:27:27;;;;;;;8.70;5.03;;;3.50;99.90;;;3.63;72.44;100820.34;4806597;29;20633;-67
2022/04/10 05:29:56;;;;;;;13.70;4.25;;;3.60;99.90;;;3.69;72.72;100824.22;4806444;29;20205;-66
2022/04/10 05:32:25;;;;;;;7.68;5.45;;;3.60;99.90;;;3.77;71.90;100822.47;4806431;29;20230;-67
2022/04/10 05:34:55;;;;;;;16.58;5.22;;;3.70;99.90;;;3.69;72.17;100835.78;4806392;29;20229;-66
2022/04/10 05:37:26;;;;;;;14.40;5.55;;;3.70;99.90;;;3.68;71.70;100831.41;4806360;29;20274;-65
2022/04/10 05:39:58;;;;;;;9.38;6.35;;;3.70;99.90;;;3.73;71.72;100825.56;4806546;29;20683;-67
2022/04/10 05:42:28;;;;;;;7.45;3.50;;;3.80;99.90;;;3.74;71.88;100837.97;4807508;29;20256;-67
2022/04/10 05:45:02;;;;;;;10.25;4.38;;;3.80;99.90;;;3.87;71.12;100828.50;4807498;29;20200;-66
2022/04/10 05:47:32;;;;;;;6.10;4.65;;;3.90;99.90;;;3.88;70.83;100830.19;4800201;29;20281;-66
2022/04/10 05:50:01;;;;;;;8.27;4.65;;;3.90;99.90;;;3.88;70.89;100840.88;4806320;29;20213;-67
2022/04/10 05:52:32;;;;;;;9.25;4.22;;;3.90;99.90;;;3.77;70.97;100843.88;4806127;29;20257;-66
2022/04/10 05:55:01;;;;;;;7.00;4.32;;;3.90;99.90;;;3.98;71.00;100845.28;4809132;29;20216;-66
2022/04/10 05:57:32;;;;;;;20.17;4.47;;;4.00;99.90;;;4.02;70.30;100843.97;4814466;29;20216;-66
2022/04/10 06:00:01;;;;;;;12.85;4.15;;;4.00;99.90;;;4.16;70.04;100848.72;4821382;29;20239;-66
2022/04/10 06:02:31;;;;;;;9.02;4.50;;;4.10;99.90;;;4.37;69.74;100854.47;4807525;29;20218;-65
2022/04/10 06:05:01;;;;;;;12.35;4.38;;;4.30;99.90;;;4.48;69.26;100858.69;4806296;29;20212;-67
2022/04/10 06:07:32;;;;;;;8.48;4.60;;;4.40;99.90;;;4.53;69.13;100859.03;4806421;29;20383;-66
2022/04/10 06:10:01;;;;;;;10.20;4.63;;;4.40;99.90;;;4.38;69.50;100856.16;4806535;29;20450;-66
2022/04/10 06:12:30;;;;;;;12.98;4.60;;;4.50;99.90;;;4.50;69.27;100851.34;4806113;29;20601;-66
2022/04/10 06:15:00;;;;;;;9.38;4.55;;;4.40;99.90;;;4.51;68.55;100859.19;4806619;29;20636;-66
2022/04/10 06:17:30;;;;;;;11.65;3.92;;;4.50;99.90;;;4.38;68.96;100867.72;4807019;29;20273;-68
2022/04/10 06:20:01;;;;;;;20.63;4.70;;;4.50;99.90;;;4.37;69.53;100862.50;4807077;29;20253;-65
2022/04/10 06:22:34;;;;;;;11.10;3.45;;;4.40;99.90;;;4.48;68.86;100869.41;4806294;29;20225;-65
2022/04/10 06:25:06;;;;;;;15.88;4.55;;;4.50;99.90;;;4.53;68.55;100873.28;4805938;29;20576;-65
2022/04/10 06:27:35;;;;;;;6.07;3.28;;;4.50;99.90;;;4.61;68.88;100875.13;4807522;29;20213;-66
2022/04/10 06:30:06;;;;;;;17.63;4.50;;;4.60;99.90;;;4.77;68.48;100870.66;4805963;29;20209;-65
2022/04/10 06:32:39;;;;;;;8.00;4.45;;;4.70;99.90;;;4.66;68.21;100873.63;4805450;29;20229;-66
2022/04/10 06:35:09;;;;;;;9.93;3.75;;;4.70;99.50;;;4.73;68.36;100876.50;4805817;29;20212;-66
2022/04/10 06:37:40;;;;;;;6.70;3.67;;;4.70;99.90;;;4.87;67.58;100880.38;4805383;29;20304;-65
2022/04/10 06:40:10;;;;;;;6.95;3.22;;;4.80;98.90;;;4.62;67.60;100882.16;4806671;29;20249;-66
2022/04/10 06:42:40;;;;;;;12.88;4.47;;;4.70;97.40;;;4.65;67.52;100882.66;4807432;29;20286;-65
2022/04/10 06:45:21;;;;;;;13.07;4.30;;;4.70;97.30;;;4.85;67.53;100890.41;4807446;29;20686;-66
2022/04/10 06:47:56;;;;;;;13.48;4.78;;;4.80;98.00;;;4.90;67.12;100896.97;4801770;29;20270;-65
2022/04/10 06:50:35;;;;;;;14.90;4.43;;;4.90;96.80;;;4.86;67.21;100897.47;4805642;29;20205;-67
2022/04/10 06:53:13;;;;;;;9.07;3.83;;;4.90;95.90;;;4.84;67.15;100894.97;4805897;29;20308;-66
2022/04/10 06:55:43;;;;;;;14.55;3.78;;;4.90;95.50;;;5.06;66.83;100897.00;4805800;29;20209;-67
2022/04/10 06:58:12;;;;;;;12.25;4.93;;;4.90;95.60;;;5.15;66.03;100890.63;4805655;29;20252;-67
2022/04/10 07:00:42;;;;;;;8.27;3.65;;;5.00;93.90;;;5.44;65.95;100890.13;4804933;29;20629;-66
2022/04/10 07:03:13;;;;;;;9.20;4.05;;;5.20;93.90;;;5.48;64.90;100875.34;4804744;29;20710;-66
2022/04/10 07:05:43;;;;;;;10.93;4.00;;;5.40;88.30;;;5.37;65.22;100889.13;4804748;29;20213;-66
2022/04/10 07:08:21;;;;;;;6.47;3.20;;;5.30;87.20;;;5.69;64.18;100898.97;4804337;29;20209;-66
2022/04/10 07:10:50;;;;;;;6.60;3.75;;;5.50;83.70;;;5.69;64.76;100899.81;4804398;29;20631;-66
2022/04/10 07:13:23;;;;;;;7.80;3.13;;;5.60;81.60;;;5.67;64.42;100912.56;4804608;29;20225;-66
2022/04/10 07:15:52;;;;;;;13.20;4.50;;;5.50;79.80;;;5.13;65.34;100913.28;4804516;29;20296;-67
2022/04/10 07:18:22;;;;;;;13.32;4.07;;;5.30;76.10;;;5.16;66.36;100918.28;4804681;29;20214;-66
2022/04/10 07:20:55;;;;;;;7.95;3.88;;;5.20;88.50;;;5.08;65.25;100920.97;4804555;29;20225;-66
2022/04/10 07:23:44;;;;;;;9.82;3.58;;;5.20;82.00;;;5.19;65.73;100912.59;4787951;29;20174;-66
2022/04/10 07:26:33;;;;;;;11.50;3.67;;;5.20;83.70;;;5.49;64.76;100911.06;4798730;29;20304;-67
2022/04/10 07:29:10;;;;;;;10.30;4.38;;;5.40;81.40;;;5.58;64.11;100918.97;4804249;29;20213;-68
2022/04/10 07:31:39;;;;;;;5.97;3.63;;;5.50;78.70;;;5.40;64.79;100926.34;4804456;29;20228;-67
2022/04/10 07:34:08;;;;;;;10.00;5.07;;;5.40;76.70;;;5.69;64.42;100924.00;4804279;29;20218;-66
2022/04/10 07:36:57;;;;;;;13.98;3.92;;;5.50;79.70;;;5.99;63.41;100925.16;4810095;29;20209;-66
2022/04/10 07:39:32;;;;;;;6.15;3.20;;;5.80;72.50;;;6.21;62.93;100931.63;4804295;29;20213;-66
2022/04/10 07:42:14;;;;;;;8.82;3.17;;;6.00;67.50;;;6.30;62.35;100930.56;4803922;29;20229;-65
2022/04/10 07:45:04;;;;;;;7.65;3.25;;;6.20;58.30;;;6.01;62.49;100933.00;4815064;29;20210;-66
2022/04/10 07:47:46;;;;;;;9.43;3.58;;;6.10;54.40;;;6.05;62.67;100937.88;4804084;29;20300;-67
2022/04/10 07:50:16;;;;;;;6.45;3.78;;;6.00;56.80;;;6.03;62.93;100933.69;4804131;29;20231;-68
2022/04/10 07:52:44;;;;;;;6.85;3.80;;;6.00;56.00;;;6.06;63.58;100936.84;4803957;29;20225;-65
2022/04/10 07:55:26;;;;;;;13.70;4.55;;;6.00;60.00;;;6.57;62.27;100936.53;4804136;29;20201;-66
2022/04/10 07:57:56;;;;;;;13.25;3.67;;;6.30;59.50;;;6.59;61.26;100945.22;4803871;29;20243;-67
2022/04/10 08:00:31;;;;;;;11.48;4.05;;;6.50;51.40;;;6.13;62.21;100947.78;4804238;29;20198;-66
2022/04/10 08:03:05;;;;;;;4.57;3.05;;;6.30;49.70;;;5.79;64.32;100947.97;4805962;29;20197;-67
2022/04/10 08:05:52;;;;;;;8.77;5.88;;;5.90;58.00;;;5.88;63.67;100962.25;4805478;29;20205;-67
2022/04/10 08:08:32;;;;;;;7.60;4.05;;;5.90;60.90;;;5.93;63.87;100962.59;4805462;29;20213;-68
2022/04/10 08:11:02;;;;;;;8.52;3.42;;;5.90;63.50;;;5.79;64.12;100963.25;4805397;29;20741;-68
2022/04/10 08:13:33;;;;;;;9.48;5.05;;;5.80;61.30;;;5.39;64.07;100977.50;4805088;29;20278;-66
2022/04/10 08:16:03;;;;;;;11.40;4.25;;;5.60;59.20;;;5.56;64.22;100973.84;4805676;29;20281;-66
2022/04/10 08:18:32;;;;;;;12.70;4.93;;;5.50;65.70;;;5.67;63.85;100971.63;4805294;29;20263;-67
2022/04/10 08:21:01;;;;;;;7.20;4.43;;;5.60;63.40;;;5.90;63.35;100976.38;4808023;29;20597;-67
2022/04/10 08:23:30;;;;;;;9.55;3.75;;;5.80;62.20;;;6.24;62.89;100974.28;4808827;29;20205;-65
2022/04/10 08:25:59;;;;;;;13.57;5.97;;;6.00;59.80;;;6.45;61.67;100976.38;4808997;29;20212;-66
2022/04/10 08:28:31;;;;;;;13.50;5.78;;;6.30;53.60;;;6.84;60.58;100984.44;4808782;29;20224;-67
2022/04/10 08:31:00;;;;;;;15.40;4.38;;;6.50;51.10;;;6.92;60.17;100973.66;4808659;29;20725;-67
2022/04/10 08:33:29;;;;;;;8.25;3.90;;;6.70;44.00;;;6.85;59.41;100981.59;4808695;29;20236;-66
2022/04/10 08:35:58;;;;;;;9.85;3.80;;;6.80;39.70;;;6.80;59.80;100975.91;4808444;29;20209;-65
2022/04/10 08:38:27;;;;;;;8.73;3.30;;;6.80;37.90;;;6.52;59.82;100983.59;4808803;29;20668;-67
2022/04/10 08:41:01;;;;;;;9.88;4.32;;;6.60;35.30;;;6.64;59.66;100980.50;4808681;29;20237;-67
2022/04/10 08:43:31;;;;;;;10.68;5.00;;;6.60;35.70;;;7.01;58.71;100983.38;4802762;29;20276;-67
2022/04/10 08:46:00;;;;;;;9.90;3.72;;;6.90;33.40;;;7.65;57.64;100982.06;4808895;29;20205;-67
2022/04/10 08:48:29;;;;;;;12.85;5.40;;;7.20;32.90;;;7.75;56.23;100988.03;4808404;29;20212;-65
2022/04/10 08:51:01;;;;;;;11.35;4.55;;;7.60;27.30;;;7.59;57.50;100988.19;4802537;29;20278;-65
2022/04/10 08:53:33;;;;;;;10.13;3.38;;;7.50;27.80;;;7.39;57.68;100990.53;4808625;29;20212;-65
2022/04/10 08:56:03;;;;;;;11.93;4.32;;;7.30;26.80;;;7.49;58.05;100997.53;4810253;29;20214;-66
2022/04/10 08:58:33;;;;;;;11.93;5.32;;;7.40;27.70;;;6.93;58.79;100999.53;4809731;29;20197;-66
2022/04/10 09:01:02;;;;;;;20.83;4.90;;;7.20;26.90;;;6.79;60.49;101006.50;4808448;29;20225;-66
2022/04/10 09:03:32;;;;;;;12.82;4.43;;;6.90;31.80;;;6.03;63.24;101009.75;4808838;29;20193;-66
2022/04/10 09:06:06;;;;;;;9.63;3.55;;;6.40;40.90;;;5.77;65.77;101018.94;4809323;29;20187;-67
2022/04/10 09:08:35;;;;;;;11.85;5.13;;;5.90;62.30;;;5.95;64.81;101016.97;4808707;29;20199;-66
2022/04/10 09:11:07;;;;;;;13.52;5.30;;;5.90;70.80;;;6.05;64.91;101013.09;4808678;29;20229;-66
2022/04/10 09:13:40;;;;;;;12.20;4.57;;;6.00;71.80;;;6.43;63.40;101019.59;4809123;29;20290;-66
2022/04/10 09:16:15;;;;;;;8.95;5.45;;;6.30;63.10;;;6.82;62.00;101013.41;4808681;29;20224;-65
2022/04/10 09:18:54;;;;;;;12.65;5.72;;;6.60;56.90;;;7.21;61.53;101024.13;4807604;29;20201;-66
2022/04/10 09:21:29;;;;;;;11.70;5.13;;;6.90;53.70;;;7.09;60.91;101012.91;4807730;29;20266;-66
2022/04/10 09:24:04;;;;;;;13.25;4.28;;;7.00;46.80;;;7.59;59.31;101022.34;4790000;30;20675;-67
2022/04/10 09:26:48;;;;;;;11.73;4.75;;;7.20;44.00;;;7.32;60.02;101018.31;4789842;29;20182;-66
2022/04/10 09:29:21;;;;;;;8.60;4.22;;;7.20;38.50;;;7.82;59.05;101015.09;4807441;29;20209;-66
2022/04/10 09:31:51;;;;;;;16.40;4.53;;;7.50;39.60;;;7.40;59.85;101021.81;4807519;29;20225;-67
2022/04/10 09:34:22;;;;;;;7.78;4.82;;;7.40;36.50;;;7.13;60.32;101026.84;4807743;29;20229;-66
2022/04/10 09:37:16;;;;;;;8.65;4.22;;;7.20;37.20;;;7.45;59.18;101018.59;4810359;29;20262;-66
2022/04/10 09:39:52;;;;;;;16.83;4.25;;;7.40;34.60;;;7.90;57.37;101012.31;4808383;29;20254;-68
2022/04/10 09:42:32;;;;;;;9.82;4.28;;;7.60;30.60;;;8.48;56.14;101006.22;4808270;29;20253;-68
2022/04/10 09:45:33;;;;;;;9.00;5.00;;;8.10;28.30;;;8.59;54.63;101002.22;4808152;29;20258;-67
2022/04/10 09:48:24;;;;;;;13.73;5.60;;;8.50;22.10;;;9.24;53.63;101006.78;4807494;29;20235;-66
2022/04/10 09:50:57;;;;;;;4.80;3.38;;;8.90;20.60;;;8.34;53.77;101003.50;4807390;29;20641;-66
2022/04/10 09:53:28;;;;;;;11.77;3.45;;;8.60;16.10;;;7.78;56.55;101014.63;4807302;29;20256;-67
2022/04/10 09:56:00;;;;;;;10.38;4.72;;;8.00;19.50;;;7.58;57.15;101017.97;4807752;29;20217;-67
2022/04/10 09:58:29;;;;;;;7.28;4.22;;;7.80;21.50;;;7.64;57.60;101019.97;4807265;29;20286;-67
2022/04/10 10:01:03;;;;;;;8.10;4.00;;;7.60;24.20;;;7.15;57.07;101022.97;4807229;29;20224;-66
2022/04/10 10:03:38;;;;;;;6.07;3.47;;;7.30;20.90;;;7.35;55.93;101018.81;4807219;29;20202;-66
2022/04/10 10:06:09;;;;;;;13.57;3.78;;;7.30;20.20;;;7.39;55.67;101000.44;4807510;29;20193;-66
2022/04/10 10:08:40;;;;;;;12.13;3.55;;;7.40;19.80;;;7.82;54.75;101021.31;4807598;29;20201;-64
2022/04/10 10:11:10;;;;;;;12.10;3.85;;;7.70;18.70;;;8.22;52.98;101006.66;4807140;29;20239;-66
2022/04/10 10:13:39;;;;;;;9.00;4.07;;;8.00;16.50;;;8.37;52.29;101009.38;4807037;29;20205;-65
2022/04/10 10:16:10;;;;;;;6.60;3.40;;;8.20;14.50;;;8.56;52.08;101019.63;4806858;29;20239;-67
2022/04/10 10:18:41;;;;;;;5.97;3.20;;;8.30;13.30;;;8.70;50.95;101018.78;4806986;29;20209;-64
2022/04/10 10:21:11;;;;;;;7.88;4.15;;;8.50;9.60;;;8.59;50.48;101010.31;4806878;29;20266;-66
2022/04/10 10:23:52;;;;;;;8.63;2.95;;;8.50;1.00;;;9.02;48.73;101020.22;4806858;29;20695;-67
2022/04/10 10:26:49;;;;;;;11.63;4.00;;;8.80;1.00;;;8.27;50.07;101025.81;4806473;29;20201;-66
2022/04/10 10:30:02;;;;;;;7.95;3.00;;;8.50;1.00;;;7.82;51.80;101015.94;4806446;29;20234;-66
2022/04/10 10:32:42;;;;;;;8.05;3.25;;;8.00;1.00;;;7.76;52.62;101015.81;4786038;29;20282;-66
2022/04/10 10:35:14;;;;;;;8.07;4.00;;;7.90;1.00;;;8.56;52.29;101021.47;4789411;29;20217;-66
2022/04/10 10:37:53;;;;;;;8.23;3.75;;;8.20;1.00;;;8.49;51.63;101012.44;4806735;29;20341;-65
2022/04/10 10:40:23;;;;;;;6.88;3.67;;;8.40;1.00;;;8.29;52.33;101018.38;4806835;29;20223;-68
2022/04/10 10:42:58;;;;;;;8.82;3.60;;;8.20;1.00;;;8.46;52.20;101007.44;4806142;29;20229;-67